sensor_id;sensor_type;location;lat;lon;timestamp;P1;durP1;ratioP1;P2;durP2;ratioP2
6019;SDS011;3038;51.122;6.840;2023-06-14T00:00:35;12.63;;;11.30;;
6019;SDS011;3038;51.122;6.840;2023-06-14T00:03:01;14.67;;;11.27;;
6019;SDS011;3038;51.122;6.840;2023-06-14T00:05:28;11.60;;;10.50;;
6019;SDS011;3038;51.122;6.840;2023-06-14T00:07:54;11.00;;;10.10;;
6019;SDS011;3038;51.122;6.840;2023-06-14T00:10:20;10.90;;;10.00;;
6019;SDS011;3038;51.122;6.840;2023-06-14T00:12:45;11.73;;;10.63;;
6019;SDS011;3038;51.122;6.840;2023-06-14T00:15:11;11.30;;;10.20;;
6019;SDS011;3038;51.122;6.840;2023-06-14T00:17:36;11.23;;;10.33;;
6019;SDS011;3038;51.122;6.840;2023-06-14T00:20:04;12.30;;;11.10;;
6019;SDS011;3038;51.122;6.840;2023-06-14T00:22:32;10.90;;;9.90;;
6019;SDS011;3038;51.122;6.840;2023-06-14T00:24:58;11.57;;;10.67;;
6019;SDS011;3038;51.122;6.840;2023-06-14T00:27:23;13.30;;;11.03;;
6019;SDS011;3038;51.122;6.840;2023-06-14T00:29:49;11.73;;;10.93;;
6019;SDS011;3038;51.122;6.840;2023-06-14T00:32:15;12.47;;;11.27;;
6019;SDS011;3038;51.122;6.840;2023-06-14T00:34:40;12.47;;;11.47;;
6019;SDS011;3038;51.122;6.840;2023-06-14T00:37:06;15.10;;;12.00;;
6019;SDS011;3038;51.122;6.840;2023-06-14T00:39:31;11.73;;;10.60;;
6019;SDS011;3038;51.122;6.840;2023-06-14T00:41:56;13.00;;;12.00;;
6019;SDS011;3038;51.122;6.840;2023-06-14T00:44:22;12.50;;;11.30;;
6019;SDS011;3038;51.122;6.840;2023-06-14T00:46:48;12.70;;;11.70;;
6019;SDS011;3038;51.122;6.840;2023-06-14T00:49:14;11.87;;;10.77;;
6019;SDS011;3038;51.122;6.840;2023-06-14T00:51:41;13.00;;;11.90;;
6019;SDS011;3038;51.122;6.840;2023-06-14T00:54:07;11.70;;;10.90;;
6019;SDS011;3038;51.122;6.840;2023-06-14T00:56:32;11.87;;;10.77;;
6019;SDS011;3038;51.122;6.840;2023-06-14T00:58:57;12.53;;;11.50;;
6019;SDS011;3038;51.122;6.840;2023-06-14T01:01:23;11.60;;;10.60;;
6019;SDS011;3038;51.122;6.840;2023-06-14T01:03:49;14.83;;;11.50;;
6019;SDS011;3038;51.122;6.840;2023-06-14T01:09:09;13.40;;;11.17;;
6019;SDS011;3038;51.122;6.840;2023-06-14T01:12:00;13.00;;;12.00;;
6019;SDS011;3038;51.122;6.840;2023-06-14T01:14:32;11.40;;;10.40;;
6019;SDS011;3038;51.122;6.840;2023-06-14T01:16:59;11.10;;;10.10;;
6019;SDS011;3038;51.122;6.840;2023-06-14T01:19:25;11.63;;;10.63;;
6019;SDS011;3038;51.122;6.840;2023-06-14T01:21:53;12.00;;;11.00;;
6019;SDS011;3038;51.122;6.840;2023-06-14T01:24:20;12.50;;;11.30;;
6019;SDS011;3038;51.122;6.840;2023-06-14T01:26:50;12.10;;;11.20;;
6019;SDS011;3038;51.122;6.840;2023-06-14T01:29:20;11.40;;;10.27;;
6019;SDS011;3038;51.122;6.840;2023-06-14T01:31:47;11.60;;;10.70;;
6019;SDS011;3038;51.122;6.840;2023-06-14T01:34:14;11.43;;;10.53;;
6019;SDS011;3038;51.122;6.840;2023-06-14T01:36:40;12.13;;;11.13;;
6019;SDS011;3038;51.122;6.840;2023-06-14T01:39:08;11.37;;;10.47;;
6019;SDS011;3038;51.122;6.840;2023-06-14T01:41:35;11.27;;;10.30;;
6019;SDS011;3038;51.122;6.840;2023-06-14T01:44:01;11.53;;;10.43;;
6019;SDS011;3038;51.122;6.840;2023-06-14T01:46:28;11.50;;;10.50;;
6019;SDS011;3038;51.122;6.840;2023-06-14T01:48:53;12.27;;;11.07;;
6019;SDS011;3038;51.122;6.840;2023-06-14T01:51:19;12.47;;;11.17;;
6019;SDS011;3038;51.122;6.840;2023-06-14T01:53:44;13.00;;;11.80;;
6019;SDS011;3038;51.122;6.840;2023-06-14T01:56:10;14.33;;;12.00;;
6019;SDS011;3038;51.122;6.840;2023-06-14T01:58:35;13.50;;;12.27;;
6019;SDS011;3038;51.122;6.840;2023-06-14T02:01:00;12.70;;;11.57;;
6019;SDS011;3038;51.122;6.840;2023-06-14T02:03:27;12.00;;;11.00;;
6019;SDS011;3038;51.122;6.840;2023-06-14T02:05:52;12.57;;;11.37;;
6019;SDS011;3038;51.122;6.840;2023-06-14T02:08:18;12.30;;;11.20;;
6019;SDS011;3038;51.122;6.840;2023-06-14T02:10:43;12.77;;;11.50;;
6019;SDS011;3038;51.122;6.840;2023-06-14T02:13:08;13.03;;;11.60;;
6019;SDS011;3038;51.122;6.840;2023-06-14T02:15:34;13.80;;;11.73;;
6019;SDS011;3038;51.122;6.840;2023-06-14T02:18:01;13.07;;;11.87;;
6019;SDS011;3038;51.122;6.840;2023-06-14T02:20:28;14.20;;;12.87;;
6019;SDS011;3038;51.122;6.840;2023-06-14T02:22:53;13.30;;;12.23;;
6019;SDS011;3038;51.122;6.840;2023-06-14T02:25:19;12.70;;;11.63;;
6019;SDS011;3038;51.122;6.840;2023-06-14T02:27:44;11.80;;;10.90;;
6019;SDS011;3038;51.122;6.840;2023-06-14T02:30:10;11.97;;;10.97;;
6019;SDS011;3038;51.122;6.840;2023-06-14T02:32:36;12.70;;;11.70;;
6019;SDS011;3038;51.122;6.840;2023-06-14T02:35:01;12.67;;;11.67;;
6019;SDS011;3038;51.122;6.840;2023-06-14T02:37:27;13.40;;;12.33;;
6019;SDS011;3038;51.122;6.840;2023-06-14T02:39:53;12.03;;;11.13;;
6019;SDS011;3038;51.122;6.840;2023-06-14T02:42:18;12.83;;;11.53;;
6019;SDS011;3038;51.122;6.840;2023-06-14T02:44:43;12.13;;;11.13;;
6019;SDS011;3038;51.122;6.840;2023-06-14T02:47:10;12.40;;;11.33;;
6019;SDS011;3038;51.122;6.840;2023-06-14T02:49:35;13.00;;;11.77;;
6019;SDS011;3038;51.122;6.840;2023-06-14T02:52:01;12.60;;;11.50;;
6019;SDS011;3038;51.122;6.840;2023-06-14T02:54:27;12.70;;;11.40;;
6019;SDS011;3038;51.122;6.840;2023-06-14T02:56:53;11.47;;;10.37;;
6019;SDS011;3038;51.122;6.840;2023-06-14T02:59:18;11.40;;;10.30;;
6019;SDS011;3038;51.122;6.840;2023-06-14T03:01:44;11.97;;;10.97;;
6019;SDS011;3038;51.122;6.840;2023-06-14T03:04:10;12.17;;;10.93;;
6019;SDS011;3038;51.122;6.840;2023-06-14T03:06:35;11.40;;;10.50;;
6019;SDS011;3038;51.122;6.840;2023-06-14T03:09:02;11.90;;;11.00;;
6019;SDS011;3038;51.122;6.840;2023-06-14T03:11:31;11.90;;;10.90;;
6019;SDS011;3038;51.122;6.840;2023-06-14T03:13:57;14.57;;;11.70;;
6019;SDS011;3038;51.122;6.840;2023-06-14T03:16:22;13.13;;;11.83;;
6019;SDS011;3038;51.122;6.840;2023-06-14T03:18:52;14.90;;;11.60;;
6019;SDS011;3038;51.122;6.840;2023-06-14T03:21:18;11.90;;;10.80;;
6019;SDS011;3038;51.122;6.840;2023-06-14T03:23:45;12.80;;;11.70;;
6019;SDS011;3038;51.122;6.840;2023-06-14T03:26:11;12.37;;;11.37;;
6019;SDS011;3038;51.122;6.840;2023-06-14T03:28:40;13.90;;;12.43;;
6019;SDS011;3038;51.122;6.840;2023-06-14T03:31:05;14.10;;;12.90;;
6019;SDS011;3038;51.122;6.840;2023-06-14T03:33:31;13.97;;;12.70;;
6019;SDS011;3038;51.122;6.840;2023-06-14T03:35:56;14.00;;;12.80;;
6019;SDS011;3038;51.122;6.840;2023-06-14T03:38:22;13.63;;;12.53;;
6019;SDS011;3038;51.122;6.840;2023-06-14T03:40:47;15.67;;;14.17;;
6019;SDS011;3038;51.122;6.840;2023-06-14T03:43:13;13.17;;;11.87;;
6019;SDS011;3038;51.122;6.840;2023-06-14T03:45:38;14.30;;;13.10;;
6019;SDS011;3038;51.122;6.840;2023-06-14T03:48:04;13.37;;;12.27;;
6019;SDS011;3038;51.122;6.840;2023-06-14T03:50:31;13.67;;;12.57;;
6019;SDS011;3038;51.122;6.840;2023-06-14T03:52:57;13.93;;;12.63;;
6019;SDS011;3038;51.122;6.840;2023-06-14T03:55:22;13.87;;;12.50;;
6019;SDS011;3038;51.122;6.840;2023-06-14T03:57:50;13.03;;;11.87;;
6019;SDS011;3038;51.122;6.840;2023-06-14T04:00:16;13.40;;;12.20;;
6019;SDS011;3038;51.122;6.840;2023-06-14T04:02:41;13.47;;;12.17;;
6019;SDS011;3038;51.122;6.840;2023-06-14T04:05:09;14.90;;;12.10;;
6019;SDS011;3038;51.122;6.840;2023-06-14T04:07:34;13.73;;;12.40;;
6019;SDS011;3038;51.122;6.840;2023-06-14T04:10:06;12.37;;;11.27;;
6019;SDS011;3038;51.122;6.840;2023-06-14T04:12:32;12.80;;;11.60;;
6019;SDS011;3038;51.122;6.840;2023-06-14T04:15:00;12.80;;;11.57;;
6019;SDS011;3038;51.122;6.840;2023-06-14T04:17:26;12.80;;;11.70;;
6019;SDS011;3038;51.122;6.840;2023-06-14T04:19:51;13.53;;;12.13;;
6019;SDS011;3038;51.122;6.840;2023-06-14T04:22:17;12.93;;;11.83;;
6019;SDS011;3038;51.122;6.840;2023-06-14T04:24:43;13.33;;;12.13;;
6019;SDS011;3038;51.122;6.840;2023-06-14T04:27:09;13.47;;;12.30;;
6019;SDS011;3038;51.122;6.840;2023-06-14T04:29:35;13.00;;;11.80;;
6019;SDS011;3038;51.122;6.840;2023-06-14T04:32:01;14.97;;;13.13;;
6019;SDS011;3038;51.122;6.840;2023-06-14T04:34:26;13.13;;;12.00;;
6019;SDS011;3038;51.122;6.840;2023-06-14T04:36:59;13.80;;;11.33;;
6019;SDS011;3038;51.122;6.840;2023-06-14T04:39:26;12.73;;;11.60;;
6019;SDS011;3038;51.122;6.840;2023-06-14T04:41:52;13.43;;;12.23;;
6019;SDS011;3038;51.122;6.840;2023-06-14T04:44:21;12.83;;;11.53;;
6019;SDS011;3038;51.122;6.840;2023-06-14T04:46:56;13.23;;;11.97;;
6019;SDS011;3038;51.122;6.840;2023-06-14T04:49:21;13.20;;;12.00;;
6019;SDS011;3038;51.122;6.840;2023-06-14T04:51:48;13.67;;;12.47;;
6019;SDS011;3038;51.122;6.840;2023-06-14T04:54:16;13.10;;;11.80;;
6019;SDS011;3038;51.122;6.840;2023-06-14T04:56:43;13.10;;;11.47;;
6019;SDS011;3038;51.122;6.840;2023-06-14T04:59:10;12.97;;;11.77;;
6019;SDS011;3038;51.122;6.840;2023-06-14T05:01:36;13.87;;;12.30;;
6019;SDS011;3038;51.122;6.840;2023-06-14T05:04:02;11.70;;;10.70;;
6019;SDS011;3038;51.122;6.840;2023-06-14T05:06:28;10.77;;;9.87;;
6019;SDS011;3038;51.122;6.840;2023-06-14T05:08:55;10.40;;;9.50;;
6019;SDS011;3038;51.122;6.840;2023-06-14T05:11:20;11.63;;;10.47;;
6019;SDS011;3038;51.122;6.840;2023-06-14T05:13:49;12.03;;;10.23;;
6019;SDS011;3038;51.122;6.840;2023-06-14T05:16:14;10.77;;;9.83;;
6019;SDS011;3038;51.122;6.840;2023-06-14T05:18:41;10.57;;;9.57;;
6019;SDS011;3038;51.122;6.840;2023-06-14T05:21:07;10.53;;;9.70;;
6019;SDS011;3038;51.122;6.840;2023-06-14T05:23:33;9.10;;;8.40;;
6019;SDS011;3038;51.122;6.840;2023-06-14T05:25:59;11.20;;;10.20;;
6019;SDS011;3038;51.122;6.840;2023-06-14T05:28:24;9.50;;;8.60;;
6019;SDS011;3038;51.122;6.840;2023-06-14T05:30:50;11.23;;;9.97;;
6019;SDS011;3038;51.122;6.840;2023-06-14T05:33:16;11.07;;;9.10;;
6019;SDS011;3038;51.122;6.840;2023-06-14T05:35:42;9.40;;;8.50;;
6019;SDS011;3038;51.122;6.840;2023-06-14T05:38:07;11.30;;;10.30;;
6019;SDS011;3038;51.122;6.840;2023-06-14T05:40:33;12.10;;;10.23;;
6019;SDS011;3038;51.122;6.840;2023-06-14T05:42:58;10.13;;;9.23;;
6019;SDS011;3038;51.122;6.840;2023-06-14T05:45:24;10.40;;;9.40;;
6019;SDS011;3038;51.122;6.840;2023-06-14T05:47:49;15.10;;;9.40;;
6019;SDS011;3038;51.122;6.840;2023-06-14T05:50:15;15.60;;;10.90;;
6019;SDS011;3038;51.122;6.840;2023-06-14T05:52:40;10.23;;;9.33;;
6019;SDS011;3038;51.122;6.840;2023-06-14T05:55:06;10.07;;;9.17;;
6019;SDS011;3038;51.122;6.840;2023-06-14T05:57:32;8.70;;;7.83;;
6019;SDS011;3038;51.122;6.840;2023-06-14T05:59:57;8.80;;;7.93;;
6019;SDS011;3038;51.122;6.840;2023-06-14T06:02:22;7.90;;;7.10;;
6019;SDS011;3038;51.122;6.840;2023-06-14T06:04:48;10.50;;;7.67;;
6019;SDS011;3038;51.122;6.840;2023-06-14T06:07:13;9.73;;;7.27;;
6019;SDS011;3038;51.122;6.840;2023-06-14T06:09:38;8.20;;;7.60;;
6019;SDS011;3038;51.122;6.840;2023-06-14T06:12:06;8.13;;;7.47;;
6019;SDS011;3038;51.122;6.840;2023-06-14T06:14:31;8.40;;;7.60;;
6019;SDS011;3038;51.122;6.840;2023-06-14T06:16:57;7.83;;;7.23;;
6019;SDS011;3038;51.122;6.840;2023-06-14T06:19:22;8.60;;;6.40;;
6019;SDS011;3038;51.122;6.840;2023-06-14T06:21:48;8.10;;;6.53;;
6019;SDS011;3038;51.122;6.840;2023-06-14T06:24:13;8.07;;;7.23;;
6019;SDS011;3038;51.122;6.840;2023-06-14T06:26:39;7.53;;;6.93;;
6019;SDS011;3038;51.122;6.840;2023-06-14T06:29:05;9.83;;;7.10;;
6019;SDS011;3038;51.122;6.840;2023-06-14T06:31:30;8.60;;;7.70;;
6019;SDS011;3038;51.122;6.840;2023-06-14T06:33:55;7.00;;;6.20;;
6019;SDS011;3038;51.122;6.840;2023-06-14T06:36:21;6.87;;;6.30;;
6019;SDS011;3038;51.122;6.840;2023-06-14T06:38:46;6.30;;;5.80;;
6019;SDS011;3038;51.122;6.840;2023-06-14T06:41:12;7.17;;;6.53;;
6019;SDS011;3038;51.122;6.840;2023-06-14T06:43:37;6.20;;;5.70;;
6019;SDS011;3038;51.122;6.840;2023-06-14T06:46:03;6.43;;;5.90;;
6019;SDS011;3038;51.122;6.840;2023-06-14T06:48:28;6.93;;;6.23;;
6019;SDS011;3038;51.122;6.840;2023-06-14T06:50:54;7.80;;;6.23;;
6019;SDS011;3038;51.122;6.840;2023-06-14T06:53:20;8.20;;;6.00;;
6019;SDS011;3038;51.122;6.840;2023-06-14T06:55:45;8.53;;;6.40;;
6019;SDS011;3038;51.122;6.840;2023-06-14T06:58:11;8.30;;;6.87;;
6019;SDS011;3038;51.122;6.840;2023-06-14T07:00:37;6.60;;;6.00;;
6019;SDS011;3038;51.122;6.840;2023-06-14T07:03:03;5.80;;;5.30;;
6019;SDS011;3038;51.122;6.840;2023-06-14T07:05:29;6.50;;;5.90;;
6019;SDS011;3038;51.122;6.840;2023-06-14T07:07:54;10.03;;;5.70;;
6019;SDS011;3038;51.122;6.840;2023-06-14T07:10:21;6.23;;;5.83;;
6019;SDS011;3038;51.122;6.840;2023-06-14T07:12:46;5.80;;;5.13;;
6019;SDS011;3038;51.122;6.840;2023-06-14T07:15:12;6.10;;;4.90;;
6019;SDS011;3038;51.122;6.840;2023-06-14T07:17:37;6.50;;;4.97;;
6019;SDS011;3038;51.122;6.840;2023-06-14T07:20:03;4.80;;;4.33;;
6019;SDS011;3038;51.122;6.840;2023-06-14T07:22:41;6.03;;;4.80;;
6019;SDS011;3038;51.122;6.840;2023-06-14T07:25:08;4.90;;;4.50;;
6019;SDS011;3038;51.122;6.840;2023-06-14T07:27:34;4.60;;;4.20;;
6019;SDS011;3038;51.122;6.840;2023-06-14T07:30:00;5.37;;;4.30;;
6019;SDS011;3038;51.122;6.840;2023-06-14T07:32:25;5.27;;;4.80;;
6019;SDS011;3038;51.122;6.840;2023-06-14T07:34:51;4.93;;;4.40;;
6019;SDS011;3038;51.122;6.840;2023-06-14T07:37:16;4.23;;;3.93;;
6019;SDS011;3038;51.122;6.840;2023-06-14T07:39:41;4.03;;;3.50;;
6019;SDS011;3038;51.122;6.840;2023-06-14T07:42:07;4.13;;;3.03;;
6019;SDS011;3038;51.122;6.840;2023-06-14T07:44:32;3.03;;;2.53;;
6019;SDS011;3038;51.122;6.840;2023-06-14T07:46:57;2.67;;;2.47;;
6019;SDS011;3038;51.122;6.840;2023-06-14T07:49:26;2.70;;;2.50;;
6019;SDS011;3038;51.122;6.840;2023-06-14T07:51:51;2.83;;;2.63;;
6019;SDS011;3038;51.122;6.840;2023-06-14T07:54:18;4.27;;;2.33;;
6019;SDS011;3038;51.122;6.840;2023-06-14T07:56:43;3.47;;;2.77;;
6019;SDS011;3038;51.122;6.840;2023-06-14T07:59:09;2.87;;;2.67;;
6019;SDS011;3038;51.122;6.840;2023-06-14T08:01:34;2.50;;;2.30;;
6019;SDS011;3038;51.122;6.840;2023-06-14T08:04:00;2.40;;;2.20;;
6019;SDS011;3038;51.122;6.840;2023-06-14T08:06:26;3.73;;;2.30;;
6019;SDS011;3038;51.122;6.840;2023-06-14T08:08:51;3.30;;;2.70;;
6019;SDS011;3038;51.122;6.840;2023-06-14T08:11:16;4.10;;;2.97;;
6019;SDS011;3038;51.122;6.840;2023-06-14T08:13:42;2.50;;;2.30;;
6019;SDS011;3038;51.122;6.840;2023-06-14T08:16:07;2.80;;;2.40;;
6019;SDS011;3038;51.122;6.840;2023-06-14T08:18:32;3.10;;;2.90;;
6019;SDS011;3038;51.122;6.840;2023-06-14T08:20:58;2.77;;;2.57;;
6019;SDS011;3038;51.122;6.840;2023-06-14T08:23:24;3.40;;;2.53;;
6019;SDS011;3038;51.122;6.840;2023-06-14T08:25:49;4.20;;;3.10;;
6019;SDS011;3038;51.122;6.840;2023-06-14T08:28:15;3.20;;;2.90;;
6019;SDS011;3038;51.122;6.840;2023-06-14T08:30:41;3.53;;;3.20;;
6019;SDS011;3038;51.122;6.840;2023-06-14T08:33:07;5.87;;;3.87;;
6019;SDS011;3038;51.122;6.840;2023-06-14T08:35:32;6.47;;;3.40;;
6019;SDS011;3038;51.122;6.840;2023-06-14T08:37:58;3.77;;;3.40;;
6019;SDS011;3038;51.122;6.840;2023-06-14T08:40:23;3.30;;;2.87;;
6019;SDS011;3038;51.122;6.840;2023-06-14T08:42:53;4.10;;;3.40;;
6019;SDS011;3038;51.122;6.840;2023-06-14T08:45:23;3.87;;;3.57;;
6019;SDS011;3038;51.122;6.840;2023-06-14T08:47:52;4.00;;;3.40;;
6019;SDS011;3038;51.122;6.840;2023-06-14T08:50:23;4.90;;;3.47;;
6019;SDS011;3038;51.122;6.840;2023-06-14T08:52:54;3.70;;;3.40;;
6019;SDS011;3038;51.122;6.840;2023-06-14T08:55:27;2.73;;;2.53;;
6019;SDS011;3038;51.122;6.840;2023-06-14T08:57:55;4.10;;;3.60;;
6019;SDS011;3038;51.122;6.840;2023-06-14T09:00:22;4.27;;;3.13;;
6019;SDS011;3038;51.122;6.840;2023-06-14T09:02:49;4.23;;;3.03;;
6019;SDS011;3038;51.122;6.840;2023-06-14T09:05:21;3.63;;;3.30;;
6019;SDS011;3038;51.122;6.840;2023-06-14T09:07:48;3.47;;;3.17;;
6019;SDS011;3038;51.122;6.840;2023-06-14T09:10:15;5.97;;;3.80;;
6019;SDS011;3038;51.122;6.840;2023-06-14T09:12:41;3.30;;;3.00;;
6019;SDS011;3038;51.122;6.840;2023-06-14T09:15:07;3.67;;;3.27;;
6019;SDS011;3038;51.122;6.840;2023-06-14T09:17:37;4.40;;;3.03;;
6019;SDS011;3038;51.122;6.840;2023-06-14T09:20:03;3.10;;;2.90;;
6019;SDS011;3038;51.122;6.840;2023-06-14T09:22:38;2.80;;;2.50;;
6019;SDS011;3038;51.122;6.840;2023-06-14T09:25:04;3.93;;;2.53;;
6019;SDS011;3038;51.122;6.840;2023-06-14T09:27:30;2.63;;;2.43;;
6019;SDS011;3038;51.122;6.840;2023-06-14T09:29:56;3.83;;;2.50;;
6019;SDS011;3038;51.122;6.840;2023-06-14T09:32:21;3.10;;;2.80;;
6019;SDS011;3038;51.122;6.840;2023-06-14T09:34:47;6.53;;;2.87;;
6019;SDS011;3038;51.122;6.840;2023-06-14T09:37:12;3.90;;;3.30;;
6019;SDS011;3038;51.122;6.840;2023-06-14T09:39:50;3.20;;;3.00;;
6019;SDS011;3038;51.122;6.840;2023-06-14T09:42:16;5.47;;;3.50;;
6019;SDS011;3038;51.122;6.840;2023-06-14T09:44:45;3.80;;;3.50;;
6019;SDS011;3038;51.122;6.840;2023-06-14T09:47:13;3.33;;;3.13;;
6019;SDS011;3038;51.122;6.840;2023-06-14T09:49:40;4.37;;;3.40;;
6019;SDS011;3038;51.122;6.840;2023-06-14T09:52:05;3.30;;;3.00;;
6019;SDS011;3038;51.122;6.840;2023-06-14T09:54:33;3.70;;;2.50;;
6019;SDS011;3038;51.122;6.840;2023-06-14T09:57:05;3.80;;;2.70;;
6019;SDS011;3038;51.122;6.840;2023-06-14T09:59:32;2.93;;;2.73;;
6019;SDS011;3038;51.122;6.840;2023-06-14T10:01:59;2.67;;;2.47;;
6019;SDS011;3038;51.122;6.840;2023-06-14T10:04:30;4.90;;;3.00;;
6019;SDS011;3038;51.122;6.840;2023-06-14T10:06:57;3.23;;;2.93;;
6019;SDS011;3038;51.122;6.840;2023-06-14T10:09:26;2.73;;;2.20;;
6019;SDS011;3038;51.122;6.840;2023-06-14T10:11:51;4.27;;;3.27;;
6019;SDS011;3038;51.122;6.840;2023-06-14T10:14:17;3.50;;;3.20;;
6019;SDS011;3038;51.122;6.840;2023-06-14T10:16:46;4.03;;;3.43;;
6019;SDS011;3038;51.122;6.840;2023-06-14T10:19:25;4.80;;;3.67;;
6019;SDS011;3038;51.122;6.840;2023-06-14T10:24:38;7.23;;;3.90;;
6019;SDS011;3038;51.122;6.840;2023-06-14T10:27:07;7.00;;;3.87;;
6019;SDS011;3038;51.122;6.840;2023-06-14T10:32:20;5.03;;;3.73;;
6019;SDS011;3038;51.122;6.840;2023-06-14T10:35:01;4.50;;;3.47;;
6019;SDS011;3038;51.122;6.840;2023-06-14T10:37:31;3.60;;;3.07;;
6019;SDS011;3038;51.122;6.840;2023-06-14T10:39:56;4.43;;;3.60;;
6019;SDS011;3038;51.122;6.840;2023-06-14T10:42:23;4.50;;;4.10;;
6019;SDS011;3038;51.122;6.840;2023-06-14T10:44:54;6.03;;;4.00;;
6019;SDS011;3038;51.122;6.840;2023-06-14T10:49:49;3.67;;;3.37;;
6019;SDS011;3038;51.122;6.840;2023-06-14T10:52:17;3.83;;;3.43;;
6019;SDS011;3038;51.122;6.840;2023-06-14T10:54:56;3.80;;;3.50;;
6019;SDS011;3038;51.122;6.840;2023-06-14T10:57:34;4.47;;;4.07;;
6019;SDS011;3038;51.122;6.840;2023-06-14T11:00:23;5.00;;;4.50;;
6019;SDS011;3038;51.122;6.840;2023-06-14T11:05:39;7.27;;;3.97;;
6019;SDS011;3038;51.122;6.840;2023-06-14T11:08:20;5.93;;;3.93;;
6019;SDS011;3038;51.122;6.840;2023-06-14T11:11:02;4.63;;;4.33;;
6019;SDS011;3038;51.122;6.840;2023-06-14T11:13:31;5.50;;;3.27;;
6019;SDS011;3038;51.122;6.840;2023-06-14T11:15:57;6.13;;;3.97;;
6019;SDS011;3038;51.122;6.840;2023-06-14T11:18:23;4.27;;;3.90;;
6019;SDS011;3038;51.122;6.840;2023-06-14T11:20:55;7.23;;;3.60;;
6019;SDS011;3038;51.122;6.840;2023-06-14T11:23:21;4.07;;;3.70;;
6019;SDS011;3038;51.122;6.840;2023-06-14T11:25:51;4.13;;;3.83;;
6019;SDS011;3038;51.122;6.840;2023-06-14T11:28:16;7.27;;;3.90;;
6019;SDS011;3038;51.122;6.840;2023-06-14T11:30:44;4.00;;;3.70;;
6019;SDS011;3038;51.122;6.840;2023-06-14T11:33:10;5.40;;;4.00;;
6019;SDS011;3038;51.122;6.840;2023-06-14T11:35:36;3.97;;;3.67;;
6019;SDS011;3038;51.122;6.840;2023-06-14T11:38:01;3.80;;;3.50;;
6019;SDS011;3038;51.122;6.840;2023-06-14T11:40:27;3.50;;;3.20;;
6019;SDS011;3038;51.122;6.840;2023-06-14T11:42:59;4.10;;;3.80;;
6019;SDS011;3038;51.122;6.840;2023-06-14T11:45:26;3.57;;;3.27;;
6019;SDS011;3038;51.122;6.840;2023-06-14T11:47:53;3.97;;;3.67;;
6019;SDS011;3038;51.122;6.840;2023-06-14T11:50:21;3.33;;;2.90;;
6019;SDS011;3038;51.122;6.840;2023-06-14T11:52:51;3.88;;;3.20;;
6019;SDS011;3038;51.122;6.840;2023-06-14T11:55:18;3.63;;;3.27;;
6019;SDS011;3038;51.122;6.840;2023-06-14T11:57:43;3.92;;;3.28;;
6019;SDS011;3038;51.122;6.840;2023-06-14T12:00:11;4.47;;;3.53;;
6019;SDS011;3038;51.122;6.840;2023-06-14T12:02:37;5.65;;;3.45;;
6019;SDS011;3038;51.122;6.840;2023-06-14T12:05:04;3.05;;;2.85;;
6019;SDS011;3038;51.122;6.840;2023-06-14T12:07:35;3.38;;;3.08;;
6019;SDS011;3038;51.122;6.840;2023-06-14T12:12:28;3.45;;;2.60;;
6019;SDS011;3038;51.122;6.840;2023-06-14T12:14:55;3.00;;;2.80;;
6019;SDS011;3038;51.122;6.840;2023-06-14T12:17:21;2.90;;;2.70;;
6019;SDS011;3038;51.122;6.840;2023-06-14T12:19:46;3.00;;;2.70;;
6019;SDS011;3038;51.122;6.840;2023-06-14T12:22:14;4.18;;;3.10;;
6019;SDS011;3038;51.122;6.840;2023-06-14T12:24:44;4.43;;;2.97;;
6019;SDS011;3038;51.122;6.840;2023-06-14T12:27:15;3.50;;;3.13;;
6019;SDS011;3038;51.122;6.840;2023-06-14T12:30:03;4.50;;;3.30;;
6019;SDS011;3038;51.122;6.840;2023-06-14T12:32:30;7.07;;;3.58;;
6019;SDS011;3038;51.122;6.840;2023-06-14T12:34:55;5.13;;;2.90;;
6019;SDS011;3038;51.122;6.840;2023-06-14T12:37:21;4.67;;;2.97;;
6019;SDS011;3038;51.122;6.840;2023-06-14T12:39:46;4.23;;;2.90;;
6019;SDS011;3038;51.122;6.840;2023-06-14T12:42:12;4.03;;;3.00;;
6019;SDS011;3038;51.122;6.840;2023-06-14T12:44:39;3.70;;;2.57;;
6019;SDS011;3038;51.122;6.840;2023-06-14T12:47:06;3.33;;;3.03;;
6019;SDS011;3038;51.122;6.840;2023-06-14T12:49:36;2.80;;;2.60;;
6019;SDS011;3038;51.122;6.840;2023-06-14T12:52:01;4.37;;;2.80;;
6019;SDS011;3038;51.122;6.840;2023-06-14T12:54:27;3.10;;;2.87;;
6019;SDS011;3038;51.122;6.840;2023-06-14T12:56:53;3.37;;;3.10;;
6019;SDS011;3038;51.122;6.840;2023-06-14T12:59:19;3.23;;;2.60;;
6019;SDS011;3038;51.122;6.840;2023-06-14T13:01:45;2.83;;;2.63;;
6019;SDS011;3038;51.122;6.840;2023-06-14T13:04:12;3.50;;;2.83;;
6019;SDS011;3038;51.122;6.840;2023-06-14T13:06:38;3.53;;;2.67;;
6019;SDS011;3038;51.122;6.840;2023-06-14T13:09:03;5.43;;;2.97;;
6019;SDS011;3038;51.122;6.840;2023-06-14T13:11:30;2.83;;;2.63;;
6019;SDS011;3038;51.122;6.840;2023-06-14T13:13:55;2.83;;;2.40;;
6019;SDS011;3038;51.122;6.840;2023-06-14T13:16:21;3.40;;;2.75;;
6019;SDS011;3038;51.122;6.840;2023-06-14T13:18:46;3.25;;;2.65;;
6019;SDS011;3038;51.122;6.840;2023-06-14T13:21:12;2.22;;;2.08;;
6019;SDS011;3038;51.122;6.840;2023-06-14T13:23:37;3.53;;;2.50;;
6019;SDS011;3038;51.122;6.840;2023-06-14T13:26:03;3.10;;;2.90;;
6019;SDS011;3038;51.122;6.840;2023-06-14T13:28:28;4.80;;;2.88;;
6019;SDS011;3038;51.122;6.840;2023-06-14T13:30:53;2.95;;;2.60;;
6019;SDS011;3038;51.122;6.840;2023-06-14T13:33:20;2.47;;;2.28;;
6019;SDS011;3038;51.122;6.840;2023-06-14T13:35:46;3.30;;;2.53;;
6019;SDS011;3038;51.122;6.840;2023-06-14T13:38:11;2.40;;;2.20;;
6019;SDS011;3038;51.122;6.840;2023-06-14T13:40:37;4.53;;;2.90;;
6019;SDS011;3038;51.122;6.840;2023-06-14T13:43:05;3.60;;;2.23;;
6019;SDS011;3038;51.122;6.840;2023-06-14T13:45:30;2.63;;;2.42;;
6019;SDS011;3038;51.122;6.840;2023-06-14T13:47:55;3.42;;;2.30;;
6019;SDS011;3038;51.122;6.840;2023-06-14T13:50:21;2.58;;;2.38;;
6019;SDS011;3038;51.122;6.840;2023-06-14T13:52:46;2.75;;;2.55;;
6019;SDS011;3038;51.122;6.840;2023-06-14T13:55:12;2.83;;;2.55;;
6019;SDS011;3038;51.122;6.840;2023-06-14T13:57:37;3.05;;;2.75;;
6019;SDS011;3038;51.122;6.840;2023-06-14T14:00:03;3.80;;;2.67;;
6019;SDS011;3038;51.122;6.840;2023-06-14T14:02:28;5.17;;;3.40;;
6019;SDS011;3038;51.122;6.840;2023-06-14T14:04:54;3.37;;;3.00;;
6019;SDS011;3038;51.122;6.840;2023-06-14T14:07:21;3.10;;;2.90;;
6019;SDS011;3038;51.122;6.840;2023-06-14T14:09:47;3.10;;;2.80;;
6019;SDS011;3038;51.122;6.840;2023-06-14T14:12:12;2.70;;;2.50;;
6019;SDS011;3038;51.122;6.840;2023-06-14T14:14:39;3.00;;;2.80;;
6019;SDS011;3038;51.122;6.840;2023-06-14T14:17:04;3.40;;;3.10;;
6019;SDS011;3038;51.122;6.840;2023-06-14T14:19:30;3.50;;;3.20;;
6019;SDS011;3038;51.122;6.840;2023-06-14T14:21:55;3.93;;;3.60;;
6019;SDS011;3038;51.122;6.840;2023-06-14T14:24:21;3.70;;;3.30;;
6019;SDS011;3038;51.122;6.840;2023-06-14T14:26:46;3.43;;;3.17;;
6019;SDS011;3038;51.122;6.840;2023-06-14T14:29:16;4.20;;;3.10;;
6019;SDS011;3038;51.122;6.840;2023-06-14T14:31:41;3.70;;;3.40;;
6019;SDS011;3038;51.122;6.840;2023-06-14T14:34:07;4.07;;;3.77;;
6019;SDS011;3038;51.122;6.840;2023-06-14T14:36:32;4.10;;;3.10;;
6019;SDS011;3038;51.122;6.840;2023-06-14T14:39:03;4.10;;;3.30;;
6019;SDS011;3038;51.122;6.840;2023-06-14T14:41:32;7.23;;;4.17;;
6019;SDS011;3038;51.122;6.840;2023-06-14T14:43:57;4.43;;;3.87;;
6019;SDS011;3038;51.122;6.840;2023-06-14T14:46:24;3.60;;;3.30;;
6019;SDS011;3038;51.122;6.840;2023-06-14T14:48:50;3.87;;;3.50;;
6019;SDS011;3038;51.122;6.840;2023-06-14T14:51:15;3.43;;;3.13;;
6019;SDS011;3038;51.122;6.840;2023-06-14T14:53:40;3.70;;;3.30;;
6019;SDS011;3038;51.122;6.840;2023-06-14T14:56:06;5.50;;;4.00;;
6019;SDS011;3038;51.122;6.840;2023-06-14T14:58:31;5.67;;;4.67;;
6019;SDS011;3038;51.122;6.840;2023-06-14T15:00:56;7.03;;;3.90;;
6019;SDS011;3038;51.122;6.840;2023-06-14T15:03:22;3.80;;;3.50;;
6019;SDS011;3038;51.122;6.840;2023-06-14T15:05:52;3.87;;;3.53;;
6019;SDS011;3038;51.122;6.840;2023-06-14T15:08:18;3.40;;;3.20;;
6019;SDS011;3038;51.122;6.840;2023-06-14T15:10:43;3.83;;;3.43;;
6019;SDS011;3038;51.122;6.840;2023-06-14T15:13:10;4.00;;;3.70;;
6019;SDS011;3038;51.122;6.840;2023-06-14T15:15:36;5.00;;;4.10;;
6019;SDS011;3038;51.122;6.840;2023-06-14T15:18:02;4.10;;;3.80;;